sensor_id;sensor_type;location;lat;lon;timestamp;pressure;altitude;pressure_sealevel;temperature;humidity
46718;BME280;32448;44.960;-0.698;2023-02-28T00:01:27;102030.03;;;-1.00;100.00
46718;BME280;32448;44.960;-0.698;2023-02-28T00:03:54;102033.38;;;-1.01;100.00
46718;BME280;32448;44.960;-0.698;2023-02-28T00:06:23;102036.44;;;-1.05;100.00
46718;BME280;32448;44.960;-0.698;2023-02-28T00:08:51;102043.25;;;-1.06;100.00
46718;BME280;32448;44.960;-0.698;2023-02-28T00:11:18;102036.31;;;-1.07;100.00
46718;BME280;32448;44.960;-0.698;2023-02-28T00:13:46;102003.59;;;-1.20;100.00
46718;BME280;32448;44.960;-0.698;2023-02-28T00:16:20;102000.81;;;-1.13;100.00
46718;BME280;32448;44.960;-0.698;2023-02-28T00:18:49;102046.69;;;-0.85;100.00
46718;BME280;32448;44.960;-0.698;2023-02-28T00:21:19;102046.94;;;-0.82;100.00
46718;BME280;32448;44.960;-0.698;2023-02-28T00:23:46;102023.84;;;-0.82;100.00
46718;BME280;32448;44.960;-0.698;2023-02-28T00:26:14;102049.00;;;-0.68;100.00
46718;BME280;32448;44.960;-0.698;2023-02-28T00:28:44;102037.69;;;-0.70;100.00
46718;BME280;32448;44.960;-0.698;2023-02-28T00:31:11;102043.44;;;-0.62;100.00
46718;BME280;32448;44.960;-0.698;2023-02-28T00:33:39;102024.94;;;-0.48;100.00
46718;BME280;32448;44.960;-0.698;2023-02-28T00:36:09;102039.28;;;-0.40;100.00
46718;BME280;32448;44.960;-0.698;2023-02-28T00:38:38;102045.16;;;-0.31;100.00
46718;BME280;32448;44.960;-0.698;2023-02-28T00:41:06;102013.63;;;-0.50;100.00
46718;BME280;32448;44.960;-0.698;2023-02-28T00:43:35;102030.97;;;-0.48;100.00
46718;BME280;32448;44.960;-0.698;2023-02-28T00:46:06;101968.41;;;-0.80;100.00
46718;BME280;32448;44.960;-0.698;2023-02-28T00:48:35;102036.19;;;-0.36;100.00
46718;BME280;32448;44.960;-0.698;2023-02-28T00:51:03;102026.59;;;-0.49;100.00
46718;BME280;32448;44.960;-0.698;2023-02-28T00:53:30;102030.19;;;-0.47;100.00
46718;BME280;32448;44.960;-0.698;2023-02-28T00:55:59;102022.72;;;-0.33;100.00
46718;BME280;32448;44.960;-0.698;2023-02-28T00:58:27;102031.41;;;-0.31;100.00
46718;BME280;32448;44.960;-0.698;2023-02-28T01:00:55;102041.94;;;-0.28;100.00
46718;BME280;32448;44.960;-0.698;2023-02-28T01:03:27;102037.34;;;-0.43;100.00
46718;BME280;32448;44.960;-0.698;2023-02-28T01:05:54;102051.00;;;-0.54;100.00
46718;BME280;32448;44.960;-0.698;2023-02-28T01:08:22;102010.84;;;-0.63;100.00
46718;BME280;32448;44.960;-0.698;2023-02-28T01:10:53;102017.72;;;-0.52;100.00
46718;BME280;32448;44.960;-0.698;2023-02-28T01:13:25;102061.34;;;-0.42;100.00
46718;BME280;32448;44.960;-0.698;2023-02-28T01:15:55;102048.16;;;-0.47;100.00
46718;BME280;32448;44.960;-0.698;2023-02-28T01:18:24;102033.00;;;-0.54;100.00
46718;BME280;32448;44.960;-0.698;2023-02-28T01:20:51;102044.69;;;-0.47;100.00
46718;BME280;32448;44.960;-0.698;2023-02-28T01:23:20;102016.47;;;-0.57;100.00
46718;BME280;32448;44.960;-0.698;2023-02-28T01:25:51;102030.19;;;-0.47;100.00
46718;BME280;32448;44.960;-0.698;2023-02-28T01:28:19;102050.81;;;-0.35;100.00
46718;BME280;32448;44.960;-0.698;2023-02-28T01:30:50;102034.41;;;-0.37;100.00
46718;BME280;32448;44.960;-0.698;2023-02-28T01:33:17;102031.44;;;-0.42;100.00
46718;BME280;32448;44.960;-0.698;2023-02-28T01:35:45;102036.94;;;-0.27;100.00
46718;BME280;32448;44.960;-0.698;2023-02-28T01:38:12;102034.19;;;-0.18;100.00
46718;BME280;32448;44.960;-0.698;2023-02-28T01:40:48;102040.56;;;-0.03;100.00
46718;BME280;32448;44.960;-0.698;2023-02-28T01:43:22;102049.63;;;0.04;100.00
46718;BME280;32448;44.960;-0.698;2023-02-28T01:45:50;102022.19;;;-0.08;100.00
46718;BME280;32448;44.960;-0.698;2023-02-28T01:48:20;102043.53;;;0.13;100.00
46718;BME280;32448;44.960;-0.698;2023-02-28T01:50:48;102042.50;;;0.11;100.00
46718;BME280;32448;44.960;-0.698;2023-02-28T01:53:19;102027.28;;;0.03;100.00
46718;BME280;32448;44.960;-0.698;2023-02-28T01:55:51;102044.22;;;0.11;100.00
46718;BME280;32448;44.960;-0.698;2023-02-28T01:58:20;102039.25;;;0.24;100.00
46718;BME280;32448;44.960;-0.698;2023-02-28T02:00:48;102031.66;;;0.25;100.00
46718;BME280;32448;44.960;-0.698;2023-02-28T02:03:17;102029.72;;;0.23;100.00
46718;BME280;32448;44.960;-0.698;2023-02-28T02:05:47;102022.13;;;0.24;100.00
46718;BME280;32448;44.960;-0.698;2023-02-28T02:08:21;102035.63;;;0.32;100.00
46718;BME280;32448;44.960;-0.698;2023-02-28T02:10:52;102030.56;;;0.33;100.00
46718;BME280;32448;44.960;-0.698;2023-02-28T02:16:39;102033.09;;;0.44;100.00
46718;BME280;32448;44.960;-0.698;2023-02-28T02:22:08;102042.50;;;0.43;100.00
46718;BME280;32448;44.960;-0.698;2023-02-28T02:24:51;102038.25;;;0.44;100.00
46718;BME280;32448;44.960;-0.698;2023-02-28T02:38:52;101989.56;;;0.13;100.00
46718;BME280;32448;44.960;-0.698;2023-02-28T02:44:28;102026.03;;;0.41;100.00
46718;BME280;32448;44.960;-0.698;2023-02-28T02:47:15;101989.88;;;0.28;100.00
46718;BME280;32448;44.960;-0.698;2023-02-28T02:49:51;102026.69;;;0.39;100.00
46718;BME280;32448;44.960;-0.698;2023-02-28T02:52:23;102036.66;;;0.46;100.00
46718;BME280;32448;44.960;-0.698;2023-02-28T02:54:54;102016.72;;;0.31;100.00
46718;BME280;32448;44.960;-0.698;2023-02-28T02:57:54;102034.66;;;0.42;100.00
46718;BME280;32448;44.960;-0.698;2023-02-28T03:00:23;102030.56;;;0.33;100.00
46718;BME280;32448;44.960;-0.698;2023-02-28T03:02:54;102038.41;;;0.35;100.00
46718;BME280;32448;44.960;-0.698;2023-02-28T03:05:30;102024.44;;;0.31;100.00
46718;BME280;32448;44.960;-0.698;2023-02-28T03:08:04;102025.78;;;0.16;100.00
46718;BME280;32448;44.960;-0.698;2023-02-28T03:10:46;102016.66;;;0.20;100.00
46718;BME280;32448;44.960;-0.698;2023-02-28T03:13:36;102003.38;;;0.04;100.00
46718;BME280;32448;44.960;-0.698;2023-02-28T03:16:32;102054.06;;;0.16;100.00
46718;BME280;32448;44.960;-0.698;2023-02-28T03:24:37;102046.28;;;0.05;100.00
46718;BME280;32448;44.960;-0.698;2023-02-28T03:27:24;102047.31;;;0.07;100.00
46718;BME280;32448;44.960;-0.698;2023-02-28T03:30:17;102048.91;;;-0.06;100.00
46718;BME280;32448;44.960;-0.698;2023-02-28T03:32:56;102046.47;;;-0.04;100.00
46718;BME280;32448;44.960;-0.698;2023-02-28T03:35:50;102043.31;;;-0.12;100.00
46718;BME280;32448;44.960;-0.698;2023-02-28T03:38:22;102050.63;;;-0.16;100.00
46718;BME280;32448;44.960;-0.698;2023-02-28T03:40:57;102048.31;;;-0.13;100.00
46718;BME280;32448;44.960;-0.698;2023-02-28T03:43:30;102055.13;;;-0.14;100.00
46718;BME280;32448;44.960;-0.698;2023-02-28T03:46:02;102042.19;;;-0.25;100.00
46718;BME280;32448;44.960;-0.698;2023-02-28T03:51:06;102058.63;;;-0.23;100.00
46718;BME280;32448;44.960;-0.698;2023-02-28T03:53:40;102062.75;;;-0.25;100.00
46718;BME280;32448;44.960;-0.698;2023-02-28T03:56:19;102067.88;;;-0.25;100.00
46718;BME280;32448;44.960;-0.698;2023-02-28T03:59:00;102064.78;;;-0.31;100.00
46718;BME280;32448;44.960;-0.698;2023-02-28T04:01:35;102055.97;;;-0.35;100.00
46718;BME280;32448;44.960;-0.698;2023-02-28T04:04:04;102063.16;;;-0.41;100.00
46718;BME280;32448;44.960;-0.698;2023-02-28T04:06:33;102062.22;;;-0.31;100.00
46718;BME280;32448;44.960;-0.698;2023-02-28T04:09:02;102066.63;;;-0.41;100.00
46718;BME280;32448;44.960;-0.698;2023-02-28T04:11:38;102064.69;;;-0.43;100.00
46718;BME280;32448;44.960;-0.698;2023-02-28T04:14:07;102070.50;;;-0.46;100.00
46718;BME280;32448;44.960;-0.698;2023-02-28T04:16:40;102062.69;;;-0.57;100.00
46718;BME280;32448;44.960;-0.698;2023-02-28T04:19:09;102073.47;;;-0.51;100.00
46718;BME280;32448;44.960;-0.698;2023-02-28T04:21:48;102088.09;;;-0.50;100.00
46718;BME280;32448;44.960;-0.698;2023-02-28T04:24:18;102095.66;;;-0.52;100.00
46718;BME280;32448;44.960;-0.698;2023-02-28T04:26:48;102096.19;;;-0.46;100.00
46718;BME280;32448;44.960;-0.698;2023-02-28T04:29:22;102051.66;;;-0.77;100.00
46718;BME280;32448;44.960;-0.698;2023-02-28T04:31:58;102097.34;;;-0.62;100.00
46718;BME280;32448;44.960;-0.698;2023-02-28T04:34:29;102052.34;;;-0.79;100.00
46718;BME280;32448;44.960;-0.698;2023-02-28T04:36:57;102082.47;;;-0.56;100.00
46718;BME280;32448;44.960;-0.698;2023-02-28T04:39:39;102082.50;;;-0.66;100.00
46718;BME280;32448;44.960;-0.698;2023-02-28T04:42:08;102086.34;;;-0.71;100.00
46718;BME280;32448;44.960;-0.698;2023-02-28T04:44:36;102097.09;;;-0.65;100.00
46718;BME280;32448;44.960;-0.698;2023-02-28T04:47:03;102079.53;;;-0.71;100.00
46718;BME280;32448;44.960;-0.698;2023-02-28T04:49:30;102095.22;;;-0.78;100.00
46718;BME280;32448;44.960;-0.698;2023-02-28T04:51:57;102077.34;;;-0.87;100.00
46718;BME280;32448;44.960;-0.698;2023-02-28T04:54:25;102099.31;;;-0.80;100.00
46718;BME280;32448;44.960;-0.698;2023-02-28T04:56:54;102077.88;;;-0.91;100.00
46718;BME280;32448;44.960;-0.698;2023-02-28T04:59:21;102090.94;;;-0.88;100.00
46718;BME280;32448;44.960;-0.698;2023-02-28T05:01:49;102114.31;;;-0.85;100.00
46718;BME280;32448;44.960;-0.698;2023-02-28T05:04:20;102108.41;;;-0.84;100.00
46718;BME280;32448;44.960;-0.698;2023-02-28T05:06:48;102112.38;;;-0.87;100.00
46718;BME280;32448;44.960;-0.698;2023-02-28T05:09:16;102107.38;;;-0.96;100.00
46718;BME280;32448;44.960;-0.698;2023-02-28T05:11:43;102104.31;;;-0.92;100.00
46718;BME280;32448;44.960;-0.698;2023-02-28T05:14:12;102121.50;;;-0.91;100.00
46718;BME280;32448;44.960;-0.698;2023-02-28T05:16:40;102107.38;;;-1.06;100.00
46718;BME280;32448;44.960;-0.698;2023-02-28T05:19:07;102131.38;;;-0.95;100.00
46718;BME280;32448;44.960;-0.698;2023-02-28T05:21:37;102054.13;;;-1.39;100.00
46718;BME280;32448;44.960;-0.698;2023-02-28T05:24:12;102083.38;;;-1.27;100.00
46718;BME280;32448;44.960;-0.698;2023-02-28T05:26:40;102120.59;;;-1.01;100.00
46718;BME280;32448;44.960;-0.698;2023-02-28T05:29:08;102095.31;;;-1.27;100.00
46718;BME280;32448;44.960;-0.698;2023-02-28T05:31:36;102123.41;;;-1.08;100.00
46718;BME280;32448;44.960;-0.698;2023-02-28T05:34:06;102135.59;;;-1.06;100.00
46718;BME280;32448;44.960;-0.698;2023-02-28T05:36:33;102106.47;;;-1.27;100.00
46718;BME280;32448;44.960;-0.698;2023-02-28T05:39:05;102123.16;;;-1.22;100.00
46718;BME280;32448;44.960;-0.698;2023-02-28T05:41:33;102118.03;;;-1.22;100.00
46718;BME280;32448;44.960;-0.698;2023-02-28T05:44:02;102135.22;;;-1.11;100.00
46718;BME280;32448;44.960;-0.698;2023-02-28T05:46:31;102134.44;;;-1.10;100.00
46718;BME280;32448;44.960;-0.698;2023-02-28T05:48:59;102140.47;;;-1.09;100.00
46718;BME280;32448;44.960;-0.698;2023-02-28T05:51:27;102139.53;;;-1.20;100.00
46718;BME280;32448;44.960;-0.698;2023-02-28T05:53:59;102153.69;;;-1.15;100.00
46718;BME280;32448;44.960;-0.698;2023-02-28T05:56:27;102123.50;;;-1.27;100.00
46718;BME280;32448;44.960;-0.698;2023-02-28T05:58:58;102151.38;;;-1.22;100.00
46718;BME280;32448;44.960;-0.698;2023-02-28T06:04:05;102151.38;;;-1.12;100.00
46718;BME280;32448;44.960;-0.698;2023-02-28T06:06:33;102152.91;;;-1.24;100.00
46718;BME280;32448;44.960;-0.698;2023-02-28T06:09:04;102163.91;;;-1.25;100.00
46718;BME280;32448;44.960;-0.698;2023-02-28T06:11:33;102151.72;;;-1.27;100.00
46718;BME280;32448;44.960;-0.698;2023-02-28T06:14:01;102109.47;;;-1.51;100.00
46718;BME280;32448;44.960;-0.698;2023-02-28T06:16:32;102119.88;;;-1.50;100.00
46718;BME280;32448;44.960;-0.698;2023-02-28T06:19:02;102166.75;;;-1.22;100.00
46718;BME280;32448;44.960;-0.698;2023-02-28T06:21:30;102174.19;;;-1.25;100.00
46718;BME280;32448;44.960;-0.698;2023-02-28T06:23:59;102133.88;;;-1.46;100.00
46718;BME280;32448;44.960;-0.698;2023-02-28T06:26:27;102165.69;;;-1.34;100.00
46718;BME280;32448;44.960;-0.698;2023-02-28T06:28:56;102151.56;;;-1.39;100.00
46718;BME280;32448;44.960;-0.698;2023-02-28T06:31:24;102169.91;;;-1.44;100.00
46718;BME280;32448;44.960;-0.698;2023-02-28T06:33:54;102162.56;;;-1.50;100.00
46718;BME280;32448;44.960;-0.698;2023-02-28T06:36:22;102169.47;;;-1.49;100.00
46718;BME280;32448;44.960;-0.698;2023-02-28T06:38:49;102138.94;;;-1.66;100.00
46718;BME280;32448;44.960;-0.698;2023-02-28T06:41:24;102175.25;;;-1.52;100.00
46718;BME280;32448;44.960;-0.698;2023-02-28T06:43:53;102193.19;;;-1.52;100.00
46718;BME280;32448;44.960;-0.698;2023-02-28T06:46:21;102169.94;;;-1.63;100.00
46718;BME280;32448;44.960;-0.698;2023-02-28T06:48:49;102180.78;;;-1.47;100.00
46718;BME280;32448;44.960;-0.698;2023-02-28T06:51:20;102189.22;;;-1.48;100.00
46718;BME280;32448;44.960;-0.698;2023-02-28T06:53:50;102201.44;;;-1.45;100.00
46718;BME280;32448;44.960;-0.698;2023-02-28T06:56:18;102189.72;;;-1.52;100.00
46718;BME280;32448;44.960;-0.698;2023-02-28T06:58:49;102191.03;;;-1.47;100.00
46718;BME280;32448;44.960;-0.698;2023-02-28T07:01:19;102187.66;;;-1.56;100.00
46718;BME280;32448;44.960;-0.698;2023-02-28T07:03:47;102193.94;;;-1.53;100.00
46718;BME280;32448;44.960;-0.698;2023-02-28T07:06:23;102190.75;;;-1.50;100.00
46718;BME280;32448;44.960;-0.698;2023-02-28T07:08:52;102208.38;;;-1.34;100.00
46718;BME280;32448;44.960;-0.698;2023-02-28T07:11:27;102166.59;;;-1.62;100.00
46718;BME280;32448;44.960;-0.698;2023-02-28T07:13:56;102218.13;;;-1.30;100.00
46718;BME280;32448;44.960;-0.698;2023-02-28T07:16:25;102206.56;;;-1.45;100.00
46718;BME280;32448;44.960;-0.698;2023-02-28T07:18:53;102188.53;;;-1.66;100.00
46718;BME280;32448;44.960;-0.698;2023-02-28T07:21:21;102209.13;;;-1.45;100.00
46718;BME280;32448;44.960;-0.698;2023-02-28T07:23:50;102210.81;;;-1.36;100.00
46718;BME280;32448;44.960;-0.698;2023-02-28T07:26:19;102210.31;;;-1.32;100.00
46718;BME280;32448;44.960;-0.698;2023-02-28T07:28:48;102220.88;;;-1.19;100.00
46718;BME280;32448;44.960;-0.698;2023-02-28T07:31:16;102226.28;;;-1.16;100.00
46718;BME280;32448;44.960;-0.698;2023-02-28T07:33:45;102222.81;;;-1.16;100.00
46718;BME280;32448;44.960;-0.698;2023-02-28T07:36:14;102222.97;;;-1.04;100.00
46718;BME280;32448;44.960;-0.698;2023-02-28T07:38:47;102210.91;;;-1.05;100.00
46718;BME280;32448;44.960;-0.698;2023-02-28T07:41:20;102209.09;;;-1.06;100.00
46718;BME280;32448;44.960;-0.698;2023-02-28T07:43:48;102221.19;;;-0.95;100.00
46718;BME280;32448;44.960;-0.698;2023-02-28T07:46:16;102241.34;;;-0.90;100.00
46718;BME280;32448;44.960;-0.698;2023-02-28T07:48:44;102237.47;;;-0.95;100.00
46718;BME280;32448;44.960;-0.698;2023-02-28T07:51:12;102244.72;;;-0.81;100.00
46718;BME280;32448;44.960;-0.698;2023-02-28T07:53:39;102229.03;;;-0.84;100.00
46718;BME280;32448;44.960;-0.698;2023-02-28T07:56:08;102202.72;;;-1.01;100.00
46718;BME280;32448;44.960;-0.698;2023-02-28T07:58:37;102259.22;;;-0.71;100.00
46718;BME280;32448;44.960;-0.698;2023-02-28T08:01:07;102244.47;;;-0.63;100.00
46718;BME280;32448;44.960;-0.698;2023-02-28T08:03:34;102252.16;;;-0.63;100.00
46718;BME280;32448;44.960;-0.698;2023-02-28T08:06:17;102220.44;;;-0.64;100.00
46718;BME280;32448;44.960;-0.698;2023-02-28T08:08:48;102235.75;;;-0.55;100.00
46718;BME280;32448;44.960;-0.698;2023-02-28T08:11:17;102228.81;;;-0.56;100.00
46718;BME280;32448;44.960;-0.698;2023-02-28T08:13:45;102246.41;;;-0.41;100.00
46718;BME280;32448;44.960;-0.698;2023-02-28T08:16:13;102232.41;;;-0.44;100.00
46718;BME280;32448;44.960;-0.698;2023-02-28T08:18:44;102227.94;;;-0.47;100.00
46718;BME280;32448;44.960;-0.698;2023-02-28T08:21:12;102255.16;;;-0.28;100.00
46718;BME280;32448;44.960;-0.698;2023-02-28T08:23:39;102243.34;;;-0.26;100.00
46718;BME280;32448;44.960;-0.698;2023-02-28T08:26:06;102249.72;;;-0.21;100.00
46718;BME280;32448;44.960;-0.698;2023-02-28T08:28:34;102248.19;;;-0.19;100.00
46718;BME280;32448;44.960;-0.698;2023-02-28T08:31:07;102257.69;;;-0.08;100.00
46718;BME280;32448;44.960;-0.698;2023-02-28T08:33:35;102211.88;;;-0.34;100.00
46718;BME280;32448;44.960;-0.698;2023-02-28T08:36:03;102259.91;;;-0.03;100.00
46718;BME280;32448;44.960;-0.698;2023-02-28T08:38:31;102253.72;;;0.06;100.00
46718;BME280;32448;44.960;-0.698;2023-02-28T08:41:11;102244.97;;;0.04;100.00
46718;BME280;32448;44.960;-0.698;2023-02-28T08:43:43;102253.28;;;0.11;100.00
46718;BME280;32448;44.960;-0.698;2023-02-28T08:46:13;102210.94;;;-0.04;100.00
46718;BME280;32448;44.960;-0.698;2023-02-28T08:48:42;102258.44;;;0.21;100.00
46718;BME280;32448;44.960;-0.698;2023-02-28T08:51:26;102246.38;;;0.10;100.00
46718;BME280;32448;44.960;-0.698;2023-02-28T08:53:59;102263.16;;;0.37;100.00
46718;BME280;32448;44.960;-0.698;2023-02-28T08:56:28;102267.00;;;0.42;100.00
46718;BME280;32448;44.960;-0.698;2023-02-28T08:59:09;102233.47;;;0.30;100.00
46718;BME280;32448;44.960;-0.698;2023-02-28T09:01:37;102279.41;;;0.58;100.00
46718;BME280;32448;44.960;-0.698;2023-02-28T09:04:10;102278.00;;;0.61;100.00
46718;BME280;32448;44.960;-0.698;2023-02-28T09:06:43;102285.31;;;0.67;100.00
46718;BME280;32448;44.960;-0.698;2023-02-28T09:09:15;102283.75;;;0.69;100.00
46718;BME280;32448;44.960;-0.698;2023-02-28T09:11:43;102278.09;;;0.73;100.00
46718;BME280;32448;44.960;-0.698;2023-02-28T09:14:11;102289.00;;;0.81;100.00
46718;BME280;32448;44.960;-0.698;2023-02-28T09:16:43;102288.47;;;0.85;100.00
46718;BME280;32448;44.960;-0.698;2023-02-28T09:19:14;102297.75;;;0.83;100.00
46718;BME280;32448;44.960;-0.698;2023-02-28T09:21:43;102272.47;;;0.89;100.00
46718;BME280;32448;44.960;-0.698;2023-02-28T09:24:10;102280.63;;;0.83;100.00
46718;BME280;32448;44.960;-0.698;2023-02-28T09:26:41;102285.53;;;1.02;100.00
46718;BME280;32448;44.960;-0.698;2023-02-28T09:29:21;102264.06;;;1.01;100.00
46718;BME280;32448;44.960;-0.698;2023-02-28T09:31:48;102288.06;;;1.12;100.00
46718;BME280;32448;44.960;-0.698;2023-02-28T09:34:17;102271.25;;;1.05;100.00
46718;BME280;32448;44.960;-0.698;2023-02-28T09:36:44;102275.94;;;1.21;100.00
46718;BME280;32448;44.960;-0.698;2023-02-28T09:39:12;102291.09;;;1.28;100.00
46718;BME280;32448;44.960;-0.698;2023-02-28T09:41:44;102279.69;;;1.36;100.00
46718;BME280;32448;44.960;-0.698;2023-02-28T09:44:26;102252.75;;;1.21;100.00
46718;BME280;32448;44.960;-0.698;2023-02-28T09:46:59;102284.44;;;1.42;100.00
46718;BME280;32448;44.960;-0.698;2023-02-28T09:49:41;102290.75;;;1.57;100.00
46718;BME280;32448;44.960;-0.698;2023-02-28T09:52:17;102286.09;;;1.63;100.00
46718;BME280;32448;44.960;-0.698;2023-02-28T09:54:46;102295.97;;;1.69;100.00
46718;BME280;32448;44.960;-0.698;2023-02-28T09:57:46;102277.91;;;1.69;100.00
46718;BME280;32448;44.960;-0.698;2023-02-28T10:00:32;102293.56;;;1.94;100.00
46718;BME280;32448;44.960;-0.698;2023-02-28T10:03:32;102291.91;;;1.94;100.00
46718;BME280;32448;44.960;-0.698;2023-02-28T10:06:17;102215.13;;;1.57;100.00
46718;BME280;32448;44.960;-0.698;2023-02-28T10:09:00;102298.06;;;1.96;100.00
46718;BME280;32448;44.960;-0.698;2023-02-28T10:11:32;102295.41;;;2.06;100.00
46718;BME280;32448;44.960;-0.698;2023-02-28T10:14:10;102254.91;;;1.94;100.00
46718;BME280;32448;44.960;-0.698;2023-02-28T10:16:43;102279.03;;;2.17;100.00
46718;BME280;32448;44.960;-0.698;2023-02-28T10:22:17;102297.00;;;2.39;100.00
46718;BME280;32448;44.960;-0.698;2023-02-28T10:24:51;102282.44;;;2.40;100.00
46718;BME280;32448;44.960;-0.698;2023-02-28T10:27:31;102251.91;;;2.23;100.00
46718;BME280;32448;44.960;-0.698;2023-02-28T10:30:00;102267.38;;;2.34;100.00
46718;BME280;32448;44.960;-0.698;2023-02-28T10:32:35;102296.56;;;2.45;100.00
46718;BME280;32448;44.960;-0.698;2023-02-28T10:35:17;102291.63;;;2.71;100.00
46718;BME280;32448;44.960;-0.698;2023-02-28T10:37:48;102274.69;;;2.63;100.00
46718;BME280;32448;44.960;-0.698;2023-02-28T10:45:34;102246.31;;;2.63;100.00
46718;BME280;32448;44.960;-0.698;2023-02-28T10:48:05;102293.28;;;2.94;100.00
46718;BME280;32448;44.960;-0.698;2023-02-28T10:58:58;102275.97;;;3.41;100.00
46718;BME280;32448;44.960;-0.698;2023-02-28T11:01:36;102276.84;;;3.53;100.00
46718;BME280;32448;44.960;-0.698;2023-02-28T11:07:00;102225.25;;;3.30;100.00
46718;BME280;32448;44.960;-0.698;2023-02-28T11:09:32;102261.84;;;3.61;100.00
46718;BME280;32448;44.960;-0.698;2023-02-28T11:12:04;102263.75;;;3.63;100.00
46718;BME280;32448;44.960;-0.698;2023-02-28T11:14:38;102231.22;;;3.67;100.00
46718;BME280;32448;44.960;-0.698;2023-02-28T11:17:21;102255.53;;;3.82;100.00
46718;BME280;32448;44.960;-0.698;2023-02-28T11:19:53;102244.41;;;3.83;100.00
46718;BME280;32448;44.960;-0.698;2023-02-28T11:22:27;102250.00;;;4.02;90.44
46718;BME280;32448;44.960;-0.698;2023-02-28T11:25:02;102250.63;;;4.12;96.81
46718;BME280;32448;44.960;-0.698;2023-02-28T11:27:47;102239.09;;;4.07;96.42
46718;BME280;32448;44.960;-0.698;2023-02-28T11:30:37;102258.03;;;4.19;89.33
46718;BME280;32448;44.960;-0.698;2023-02-28T11:33:30;102254.16;;;4.38;85.32
46718;BME280;32448;44.960;-0.698;2023-02-28T11:36:10;102233.03;;;4.19;86.15
46718;BME280;32448;44.960;-0.698;2023-02-28T11:39:09;102246.28;;;4.37;92.46
46718;BME280;32448;44.960;-0.698;2023-02-28T11:44:42;102237.19;;;4.57;88.64
46718;BME280;32448;44.960;-0.698;2023-02-28T11:48:10;102224.09;;;4.41;80.68
46718;BME280;32448;44.960;-0.698;2023-02-28T11:50:54;102232.22;;;4.47;84.73
46718;BME280;32448;44.960;-0.698;2023-02-28T11:53:44;102195.09;;;4.46;80.29
46718;BME280;32448;44.960;-0.698;2023-02-28T11:56:27;102184.06;;;4.35;80.64
46718;BME280;32448;44.960;-0.698;2023-02-28T12:04:21;102200.63;;;4.65;73.66
46718;BME280;32448;44.960;-0.698;2023-02-28T12:07:00;102216.56;;;4.85;79.26
46718;BME280;32448;44.960;-0.698;2023-02-28T12:12:38;102218.97;;;4.68;78.11
46718;BME280;32448;44.960;-0.698;2023-02-28T12:15:28;102182.94;;;4.58;78.91
46718;BME280;32448;44.960;-0.698;2023-02-28T12:18:38;102200.03;;;4.83;78.98
46718;BME280;32448;44.960;-0.698;2023-02-28T12:26:40;102183.38;;;4.79;75.48
46718;BME280;32448;44.960;-0.698;2023-02-28T12:29:17;102169.75;;;4.82;79.19
46718;BME280;32448;44.960;-0.698;2023-02-28T12:31:51;102171.91;;;4.89;78.88
46718;BME280;32448;44.960;-0.698;2023-02-28T12:34:27;102166.38;;;4.69;73.58
46718;BME280;32448;44.960;-0.698;2023-02-28T12:36:58;102163.13;;;4.87;78.34
46718;BME280;32448;44.960;-0.698;2023-02-28T12:39:41;102164.94;;;5.16;72.38
46718;BME280;32448;44.960;-0.698;2023-02-28T12:42:26;102160.78;;;5.04;74.00
46718;BME280;32448;44.960;-0.698;2023-02-28T12:44:59;102164.47;;;5.08;74.65
46718;BME280;32448;44.960;-0.698;2023-02-28T12:47:28;102163.84;;;5.40;77.73
46718;BME280;32448;44.960;-0.698;2023-02-28T12:50:05;102153.53;;;5.41;77.13
46718;BME280;32448;44.960;-0.698;2023-02-28T12:55:30;102149.97;;;5.39;67.64
46718;BME280;32448;44.960;-0.698;2023-02-28T13:03:44;102137.72;;;5.66;67.34
46718;BME280;32448;44.960;-0.698;2023-02-28T13:09:13;102097.72;;;5.04;68.93
46718;BME280;32448;44.960;-0.698;2023-02-28T13:11:48;102117.34;;;5.00;66.12
46718;BME280;32448;44.960;-0.698;2023-02-28T13:19:44;102132.97;;;5.44;65.75
46718;BME280;32448;44.960;-0.698;2023-02-28T13:24:56;102123.88;;;5.08;62.95
46718;BME280;32448;44.960;-0.698;2023-02-28T13:27:33;102133.28;;;5.21;62.46
46718;BME280;32448;44.960;-0.698;2023-02-28T13:38:56;102125.91;;;5.57;68.24
46718;BME280;32448;44.960;-0.698;2023-02-28T13:44:03;102086.28;;;5.15;63.82
46718;BME280;32448;44.960;-0.698;2023-02-28T13:46:32;102112.22;;;5.44;61.89
46718;BME280;32448;44.960;-0.698;2023-02-28T13:51:49;102114.03;;;5.60;66.66
46718;BME280;32448;44.960;-0.698;2023-02-28T14:02:56;102112.94;;;5.57;62.57
46718;BME280;32448;44.960;-0.698;2023-02-28T14:05:30;102097.94;;;5.36;63.47
46718;BME280;32448;44.960;-0.698;2023-02-28T14:08:05;102108.94;;;5.62;65.94
46718;BME280;32448;44.960;-0.698;2023-02-28T14:10:43;102119.66;;;5.68;62.80
46718;BME280;32448;44.960;-0.698;2023-02-28T14:13:37;102117.78;;;5.65;65.12
46718;BME280;32448;44.960;-0.698;2023-02-28T14:16:05;102100.59;;;5.67;64.23
46718;BME280;32448;44.960;-0.698;2023-02-28T14:18:35;102099.81;;;5.68;62.76
46718;BME280;32448;44.960;-0.698;2023-02-28T14:21:24;102065.38;;;5.41;65.13
46718;BME280;32448;44.960;-0.698;2023-02-28T14:26:57;102115.97;;;5.64;64.88
46718;BME280;32448;44.960;-0.698;2023-02-28T14:29:41;102125.31;;;5.61;64.12
46718;BME280;32448;44.960;-0.698;2023-02-28T14:32:40;102117.25;;;5.56;61.35
46718;BME280;32448;44.960;-0.698;2023-02-28T14:35:53;102108.56;;;5.56;64.91
46718;BME280;32448;44.960;-0.698;2023-02-28T14:38:27;102116.63;;;5.60;58.46
46718;BME280;32448;44.960;-0.698;2023-02-28T14:40:58;102108.59;;;5.41;61.32
46718;BME280;32448;44.960;-0.698;2023-02-28T14:43:28;102098.44;;;5.31;60.00
46718;BME280;32448;44.960;-0.698;2023-02-28T14:45:59;102053.03;;;4.93;57.33
46718;BME280;32448;44.960;-0.698;2023-02-28T14:48:27;102105.06;;;5.26;62.47
46718;BME280;32448;44.960;-0.698;2023-02-28T14:50:57;102109.56;;;5.28;61.89
46718;BME280;32448;44.960;-0.698;2023-02-28T14:53:30;102121.44;;;5.25;58.92
46718;BME280;32448;44.960;-0.698;2023-02-28T14:56:02;102106.31;;;5.18;59.05
46718;BME280;32448;44.960;-0.698;2023-02-28T14:58:32;102084.59;;;5.16;59.33